createdAt,value
2023-02-15T00:01:26.410Z,92.55
2023-02-15T00:05:30.517Z,95.40
2023-02-15T00:09:32.670Z,92.38
2023-02-15T00:13:36.502Z,98.18
2023-02-15T00:17:38.496Z,94.85
2023-02-15T00:21:41.077Z,92.47
2023-02-15T00:25:42.965Z,86.55
2023-02-15T00:29:45.024Z,86.20
2023-02-15T00:33:47.346Z,86.85
2023-02-15T00:37:50.023Z,85.32
2023-02-15T00:41:52.089Z,87.45
2023-02-15T00:45:54.282Z,82.40
2023-02-15T00:49:56.516Z,91.18
2023-02-15T00:53:59.062Z,84.35
2023-02-15T00:58:01.113Z,81.25
2023-02-15T01:02:03.144Z,89.20
2023-02-15T01:06:05.945Z,103.20
2023-02-15T01:10:08.511Z,100.22
2023-02-15T01:14:10.539Z,94.22
2023-02-15T01:18:14.246Z,90.60
2023-02-15T01:22:17.526Z,93.65
2023-02-15T01:26:19.851Z,88.90
2023-02-15T01:30:21.810Z,93.63
2023-02-15T01:34:23.931Z,98.35
2023-02-15T01:38:25.982Z,96.07
2023-02-15T01:42:30.582Z,106.50
2023-02-15T01:46:53.117Z,98.95
2023-02-15T01:51:01.725Z,103.03
2023-02-15T01:55:07.163Z,93.50
2023-02-15T01:59:17.977Z,92.93
2023-02-15T02:03:40.520Z,91.65
2023-02-15T02:07:46.054Z,96.88
2023-02-15T02:11:49.257Z,91.93
2023-02-15T02:16:13.410Z,97.35
2023-02-15T02:20:37.281Z,103.53
2023-02-15T02:25:27.222Z,108.68
2023-02-15T02:33:51.037Z,91.05
2023-02-15T02:38:16.290Z,97.35
2023-02-15T02:42:30.572Z,108.72
2023-02-15T02:46:40.628Z,102.20
2023-02-15T02:50:43.038Z,83.82
2023-02-15T02:54:45.665Z,82.20
2023-02-15T02:58:53.981Z,86.88
2023-02-15T03:03:12.623Z,83.57
2023-02-15T03:07:23.117Z,85.05
2023-02-15T03:11:26.351Z,92.53
2023-02-15T03:15:56.554Z,85.38
2023-02-15T03:20:04.823Z,79.30
2023-02-15T03:24:16.441Z,81.15
2023-02-15T03:28:25.085Z,74.72
2023-02-15T03:32:30.568Z,80.25
2023-02-15T03:36:51.708Z,72.32
2023-02-15T03:41:12.010Z,90.90
2023-02-15T03:45:23.265Z,73.03
2023-02-15T03:49:31.999Z,76.70
2023-02-15T03:53:34.679Z,68.50
2023-02-15T03:57:56.600Z,67.95
2023-02-15T04:02:18.768Z,78.90
2023-02-15T04:06:20.958Z,79.47
2023-02-15T04:10:41.856Z,73.85
2023-02-15T04:15:02.589Z,67.15
2023-02-15T04:19:24.691Z,71.88
2023-02-15T04:23:45.316Z,70.07
2023-02-15T04:27:52.408Z,76.20
2023-02-15T04:31:57.354Z,74.43
2023-02-15T04:35:59.646Z,74.07
2023-02-15T04:40:01.984Z,77.90
2023-02-15T04:44:04.383Z,72.90
2023-02-15T04:48:06.474Z,87.72
2023-02-15T04:52:08.527Z,82.35
2023-02-15T04:56:10.496Z,86.35
2023-02-15T05:00:13.273Z,118.28
2023-02-15T05:04:15.413Z,106.65
2023-02-15T05:08:17.740Z,87.22
2023-02-15T05:12:19.973Z,96.68
2023-02-15T05:16:22.197Z,79.90
2023-02-15T05:20:24.140Z,78.82
2023-02-15T05:24:45.099Z,78.70
2023-02-15T05:28:47.186Z,87.00
2023-02-15T05:32:48.996Z,88.22
2023-02-15T05:36:51.196Z,78.15
2023-02-15T05:40:53.988Z,82.70
2023-02-15T05:44:56.012Z,89.43
2023-02-15T05:48:58.274Z,98.80
2023-02-15T05:53:00.314Z,87.47
2023-02-15T05:57:02.504Z,74.50
2023-02-15T06:01:12.159Z,79.05
2023-02-15T06:05:14.378Z,74.60
2023-02-15T06:09:19.215Z,83.45
2023-02-15T06:13:22.306Z,73.03
2023-02-15T06:17:24.248Z,75.65
2023-02-15T06:21:26.528Z,83.05
2023-02-15T06:25:28.909Z,74.50
2023-02-15T06:29:30.925Z,81.50
2023-02-15T06:33:34.864Z,81.68
2023-02-15T06:37:37.016Z,76.38
2023-02-15T06:41:38.638Z,79.20
2023-02-15T06:45:42.414Z,82.43
2023-02-15T06:49:44.527Z,87.72
2023-02-15T06:53:46.731Z,82.95
2023-02-15T06:57:50.870Z,92.03
2023-02-15T07:01:53.274Z,85.43
2023-02-15T07:05:57.149Z,97.05
2023-02-15T07:09:59.260Z,86.35
2023-02-15T07:14:01.293Z,100.43
2023-02-15T07:18:03.523Z,88.80
2023-02-15T07:22:06.002Z,84.03
2023-02-15T07:26:08.410Z,87.82
2023-02-15T07:30:13.058Z,72.55
2023-02-15T07:34:15.565Z,83.90
2023-02-15T07:38:17.997Z,75.57
2023-02-15T07:42:22.041Z,74.80
2023-02-15T07:46:24.254Z,75.63
2023-02-15T07:50:26.378Z,83.55
2023-02-15T07:54:28.584Z,76.22
2023-02-15T07:58:48.997Z,78.07
2023-02-15T08:03:14.559Z,87.82
2023-02-15T08:07:16.740Z,87.45
2023-02-15T08:11:26.531Z,86.32
2023-02-15T08:15:28.262Z,92.47
2023-02-15T08:19:32.864Z,93.47
2023-02-15T08:23:35.021Z,88.68
2023-02-15T08:27:37.425Z,94.35
2023-02-15T08:31:41.998Z,93.55
2023-02-15T08:35:44.288Z,84.82
2023-02-15T08:39:46.929Z,89.75
2023-02-15T08:43:52.229Z,92.78
2023-02-15T08:47:53.999Z,93.72
2023-02-15T08:51:56.068Z,87.13
2023-02-15T08:55:58.963Z,93.30
2023-02-15T09:00:00.962Z,77.20
2023-02-15T09:04:06.291Z,83.47
2023-02-15T09:08:08.304Z,69.13
2023-02-15T09:12:10.334Z,67.13
2023-02-15T09:16:12.487Z,66.32
2023-02-15T09:20:14.337Z,66.68
2023-02-15T09:24:17.531Z,65.35
2023-02-15T09:28:19.576Z,67.90
2023-02-15T09:32:22.999Z,66.72
2023-02-15T09:36:33.748Z,67.30
2023-02-15T09:40:49.345Z,69.03
2023-02-15T09:44:59.002Z,79.50
2023-02-15T09:49:35.362Z,81.45
2023-02-15T09:53:55.355Z,82.40
2023-02-15T09:58:10.486Z,85.07
2023-02-15T10:02:31.442Z,85.25
2023-02-15T10:06:43.093Z,87.13
2023-02-15T10:11:19.765Z,81.22
2023-02-15T10:15:37.719Z,87.80
2023-02-15T10:20:01.152Z,81.77
2023-02-15T10:24:29.290Z,79.00
2023-02-15T10:28:47.699Z,85.55
2023-02-15T10:33:18.932Z,87.78
2023-02-15T10:38:00.382Z,83.40
2023-02-15T10:42:32.241Z,79.60
2023-02-15T10:46:44.655Z,64.68
2023-02-15T10:50:53.706Z,68.65
2023-02-15T10:55:09.973Z,62.70
2023-02-15T10:59:30.405Z,71.22
2023-02-15T11:04:10.538Z,74.88
2023-02-15T11:08:12.903Z,82.15
2023-02-15T11:12:20.750Z,90.88
2023-02-15T11:16:31.511Z,60.40
2023-02-15T11:20:59.149Z,64.70
2023-02-15T11:25:03.133Z,67.22
2023-02-15T11:29:23.871Z,57.13
2023-02-15T11:33:32.469Z,54.92
2023-02-15T11:37:53.196Z,61.03
2023-02-15T11:42:01.100Z,64.55
2023-02-15T11:46:03.741Z,62.20
2023-02-15T11:50:06.370Z,60.38
2023-02-15T11:54:09.730Z,64.80
2023-02-15T11:58:29.216Z,66.13
2023-02-15T12:02:34.401Z,61.83
2023-02-15T12:06:49.022Z,74.10
2023-02-15T12:11:01.830Z,63.60
2023-02-15T12:15:14.237Z,64.05
2023-02-15T12:19:29.055Z,71.60
2023-02-15T12:23:33.028Z,69.50
2023-02-15T12:27:36.520Z,63.92
2023-02-15T12:31:43.184Z,66.32
2023-02-15T12:35:45.358Z,65.88
2023-02-15T12:39:59.540Z,73.97
2023-02-15T12:44:16.263Z,67.60
2023-02-15T12:48:20.648Z,73.30
2023-02-15T12:52:22.673Z,89.47
2023-02-15T12:56:28.648Z,79.00
2023-02-15T13:00:32.901Z,82.28
2023-02-15T13:04:34.892Z,79.60
2023-02-15T13:08:48.733Z,78.70
2023-02-15T13:12:54.970Z,75.88
2023-02-15T13:17:01.623Z,78.47
2023-02-15T13:21:25.556Z,85.03
2023-02-15T13:25:32.161Z,84.57
2023-02-15T13:29:38.079Z,87.95
2023-02-15T13:33:46.451Z,87.30
2023-02-15T13:41:53.502Z,92.38
2023-02-15T13:46:09.733Z,85.30
2023-02-15T13:50:28.549Z,92.35
2023-02-15T13:59:17.100Z,81.80
2023-02-15T14:04:01.121Z,92.47
2023-02-15T14:08:23.388Z,85.85
2023-02-15T14:12:28.328Z,93.78
2023-02-15T14:17:09.415Z,86.55
2023-02-15T14:21:31.509Z,94.45
2023-02-15T14:25:44.928Z,90.63
2023-02-15T14:30:02.935Z,88.22
2023-02-15T14:34:05.157Z,92.13
2023-02-15T14:38:37.984Z,95.05
2023-02-15T14:42:39.975Z,100.32
2023-02-15T14:46:55.754Z,103.90
2023-02-15T14:50:58.498Z,111.13
2023-02-15T14:55:01.219Z,127.68
2023-02-15T14:59:13.045Z,123.35
2023-02-15T15:03:25.480Z,98.80
2023-02-15T15:07:36.580Z,95.55
2023-02-15T15:11:52.815Z,88.75
2023-02-15T15:15:54.907Z,87.63
2023-02-15T15:19:56.833Z,82.43
2023-02-15T15:23:58.691Z,92.38
2023-02-15T15:28:00.677Z,93.80
2023-02-15T15:32:03.275Z,103.07
2023-02-15T15:36:28.628Z,104.30
2023-02-15T15:40:57.335Z,112.05
2023-02-15T15:45:44.422Z,98.00
2023-02-15T15:49:46.853Z,108.50
2023-02-15T15:53:54.000Z,98.43
2023-02-15T15:58:08.231Z,95.05
2023-02-15T16:02:18.862Z,90.05
2023-02-15T16:06:32.335Z,97.78
2023-02-15T16:10:36.939Z,95.70
2023-02-15T16:14:41.762Z,93.55
2023-02-15T16:18:44.436Z,88.95
2023-02-15T16:22:56.562Z,91.45
2023-02-15T16:27:28.610Z,99.35
2023-02-15T16:31:30.851Z,80.95
2023-02-15T16:35:33.185Z,76.90
2023-02-15T16:39:42.344Z,83.93
2023-02-15T16:43:48.692Z,84.63
2023-02-15T16:48:00.466Z,85.05
2023-02-15T16:52:09.543Z,97.90
2023-02-15T16:56:11.660Z,99.13
2023-02-15T17:00:21.596Z,90.95
2023-02-15T17:04:23.663Z,96.40
2023-02-15T17:08:43.724Z,102.15
2023-02-15T17:12:56.839Z,97.78
2023-02-15T17:17:05.889Z,98.57
2023-02-15T17:21:14.640Z,105.88
2023-02-15T17:25:24.485Z,111.97
2023-02-15T17:29:34.974Z,139.18
2023-02-15T17:33:40.194Z,144.55
2023-02-15T17:37:50.208Z,114.38
2023-02-15T17:41:53.919Z,127.30
2023-02-15T17:45:58.515Z,118.72
2023-02-15T17:50:04.097Z,116.00
2023-02-15T17:54:24.673Z,104.53
2023-02-15T17:58:26.609Z,100.05
2023-02-15T18:02:53.386Z,103.75
2023-02-15T18:07:14.088Z,106.50
2023-02-15T18:11:34.972Z,112.32
2023-02-15T18:15:36.997Z,114.93
2023-02-15T18:19:41.033Z,113.68
2023-02-15T18:23:43.068Z,105.15
2023-02-15T18:27:45.446Z,124.18
2023-02-15T18:31:53.856Z,120.63
2023-02-15T18:35:56.019Z,107.88
2023-02-15T18:39:58.009Z,104.10
2023-02-15T18:44:00.084Z,109.32
2023-02-15T18:48:02.149Z,101.68
2023-02-15T18:52:04.438Z,100.90
2023-02-15T18:56:06.565Z,102.57
2023-02-15T19:00:16.245Z,96.25
2023-02-15T19:04:18.493Z,96.35
2023-02-15T19:08:24.668Z,98.88
2023-02-15T19:12:28.331Z,97.70
2023-02-15T19:16:36.018Z,105.53
2023-02-15T19:20:42.530Z,110.43
2023-02-15T19:24:47.027Z,101.18
2023-02-15T19:28:49.199Z,100.57
2023-02-15T19:32:51.285Z,102.82
2023-02-15T19:36:54.909Z,98.28
2023-02-15T19:41:04.333Z,101.65
2023-02-15T19:45:14.763Z,106.03
2023-02-15T19:49:16.943Z,119.32
2023-02-15T19:53:24.384Z,100.85
2023-02-15T19:57:27.679Z,119.73
2023-02-15T20:01:29.867Z,110.05
2023-02-15T20:05:34.964Z,102.20
2023-02-15T20:09:40.749Z,109.47
2023-02-15T20:13:42.829Z,121.47
2023-02-15T20:17:44.865Z,111.13
2023-02-15T20:21:52.132Z,119.68
2023-02-15T20:25:55.004Z,108.03
2023-02-15T20:29:57.112Z,105.75
2023-02-15T20:33:59.228Z,121.50
2023-02-15T20:38:03.126Z,137.95
2023-02-15T20:42:05.179Z,140.70
2023-02-15T20:46:08.230Z,123.38
2023-02-15T20:50:10.714Z,152.98
2023-02-15T20:54:24.448Z,129.88
2023-02-15T20:58:28.989Z,123.38
2023-02-15T21:02:31.149Z,120.20
2023-02-15T21:06:33.120Z,134.27
2023-02-15T21:10:35.342Z,129.77
2023-02-15T21:14:37.742Z,130.32
2023-02-15T21:18:42.160Z,139.98
2023-02-15T21:22:44.738Z,137.20
2023-02-15T21:26:47.736Z,140.80
2023-02-15T21:30:51.207Z,125.78
2023-02-15T21:34:52.828Z,152.98
2023-02-15T21:38:55.137Z,146.25
2023-02-15T21:43:17.716Z,140.25
2023-02-15T21:47:41.331Z,148.48
2023-02-15T21:52:08.670Z,157.73
2023-02-15T21:56:20.071Z,182.27
2023-02-15T22:00:24.431Z,169.07
2023-02-15T22:04:29.545Z,157.40
2023-02-15T22:08:31.675Z,174.10
2023-02-15T22:12:33.665Z,201.38
2023-02-15T22:16:35.884Z,170.93
2023-02-15T22:20:37.882Z,185.27
2023-02-15T22:24:40.215Z,191.93
2023-02-15T22:28:42.833Z,178.00
2023-02-15T22:32:44.794Z,181.80
2023-02-15T22:36:46.684Z,198.43
2023-02-15T22:40:50.862Z,179.63
2023-02-15T22:44:57.907Z,215.48
2023-02-15T22:48:59.998Z,200.40
2023-02-15T22:53:03.315Z,207.90
2023-02-15T22:57:05.977Z,200.27
2023-02-15T23:01:33.532Z,201.07
2023-02-15T23:05:35.581Z,236.00
2023-02-15T23:09:37.576Z,215.90
2023-02-15T23:13:39.783Z,205.75
2023-02-15T23:17:41.694Z,237.57
2023-02-15T23:21:43.819Z,214.35
2023-02-15T23:25:45.944Z,213.70
2023-02-15T23:29:47.944Z,208.77
2023-02-15T23:33:50.822Z,211.93
2023-02-15T23:37:52.861Z,236.25
2023-02-15T23:41:54.850Z,233.40
2023-02-15T23:45:56.566Z,214.35
2023-02-15T23:49:58.550Z,243.60
2023-02-15T23:54:00.484Z,213.50
2023-02-15T23:58:07.212Z,217.00
